Murtala Muhammed International Airport

DNMM · Lagos, Nigeria

Storia di METAR DNMM · Murtala Muhammed International Airport

Di seguito sono riportati i METAR degli ultimi giorni. Seleziona un anno per sfogliare i METAR più vecchi, dall'anno 2007 in poi.

1 dicembre 2022

Tempo Codice Tempo metereologico Temp. Vista Base nuvolosa Vento METAR/SPECI
20:00
V
28 °C 10 km+ - Var Var 2 kt METAR DNMM 011900Z VRB02KT 9999 FEW012 28/25 Q1010 NOSIG
19:00
V
28 °C 8 km - 140° 140° 3 kt METAR DNMM 011800Z 14003KT 8000 SCT012 FEW020CB 28/25 Q1010 NOSIG
18:00
V
28 °C 8 km - 180° 180° 3 kt METAR DNMM 011700Z 18003KT 8000 SCT012 FEW020CB 28/24 Q1008 NOSIG
17:00
V
29 °C 8 km - 220° 220° 3 kt METAR DNMM 011600Z 22003KT 8000 SCT013 FEW020CB 29/24 Q1008 NOSIG
16:00
V
29 °C 8 km - 190° 190° 4 kt METAR DNMM 011500Z 19004KT 8000 TS SCT013 FEW020CB 29/24 Q1008 NOSIG
15:00
M
28 °C 8 km 1.200 ft 250° 250° 3 kt METAR DNMM 011400Z 25003KT 8000 TS BKN012 FEW020CB 28/25 Q1008 NOSIG
14:00
M
27 °C 8 km 1.100 ft 320° 320° 3 kt METAR DNMM 011300Z 32003KT 8000 TS BKN011 FEW020CB 27/24 Q1009 TEMPO 5000 -TSRA
13:00
M
27 °C 7 km 1.200 ft 230° 230° 5 kt METAR DNMM 011200Z 23005KT 7000 TS BKN012 FEW020CB 27/24 Q1010 TEMPO 5000 -TSRA
12:00
M
29 °C 8 km 1.300 ft 110° 110° 6 kt METAR DNMM 011100Z 11006KT 8000 2000NW -RA BKN013 FEW020CB 29/26 Q1010 TEMPO 5000 -RA
11:00
M
29 °C 10 km+ 1.300 ft 160° 160° 3 kt METAR DNMM 011000Z 16003KT 9999 BKN013 29/26 Q1011 NOSIG
10:00
V
29 °C 8 km - 330° 330° 3 kt METAR DNMM 010900Z 33003KT 8000 SCT013 29/26 Q1011 NOSIG
09:00
M
27 °C 7 km - 320° 320° 3 kt METAR DNMM 010800Z 32003KT 7000 FEW010 27/26 Q1010 NOSIG
08:00
M
26 °C 5 km - 320° 320° 3 kt METAR DNMM 010700Z 32003KT 5000 BR FEW010 26/25 Q1010 BECMG 7000 NSW
07:00
M
25 °C 5 km - 340° 340° 3 kt METAR DNMM 010600Z 34003KT 5000 BR FEW009 25/24 Q1010 TEMPO 3000 BR
06:00
M
25 °C 7 km - 340° 340° 3 kt METAR DNMM 010500Z 34003KT 7000 SCT009 25/25 Q1009 TEMPO 5000 BR
05:00
V
26 °C 8 km - 320° 320° 3 kt METAR DNMM 010400Z 32003KT 8000 FEW010 26/25 Q1009 NOSIG
04:00
V
26 °C 8 km - Var Var 2 kt METAR DNMM 010300Z VRB02KT 8000 FEW010 26/25 Q1008 NOSIG
03:00
V
26 °C 8 km - Var 000° 0 kt METAR DNMM 010200Z 00000KT 8000 FEW010 26/25 Q1009 NOSIG
02:00
V
26 °C 10 km+ - Var Var 2 kt METAR DNMM 010100Z VRB02KT 9999 FEW010 26/25 Q1009 NOSIG
01:00
V
27 °C 10 km+ - Var Var 2 kt METAR DNMM 010000Z VRB02KT 9999 FEW011 27/25 Q1011 NOSIG

30 novembre 2022

Tempo Codice Tempo metereologico Temp. Vista Base nuvolosa Vento METAR/SPECI
23:00
V
27 °C 10 km+ - Var Var 2 kt METAR DNMM 302200Z VRB02KT 9999 FEW011 27/25 Q1011 NOSIG
22:00
V
27 °C 10 km+ - Var Var 2 kt METAR DNMM 302100Z VRB02KT 9999 FEW011 27/25 Q1011 NOSIG
21:00
V
28 °C 10 km+ - 210° 210° 3 kt METAR DNMM 302000Z 21003KT 9999 FEW012 28/25 Q1010 NOSIG
20:00
V
28 °C 10 km+ - 180° 180° 3 kt METAR DNMM 301900Z 18003KT 9999 FEW012 28/26 Q1009 NOSIG
19:00
V
29 °C 8 km - 170° 170° 4 kt METAR DNMM 301800Z 17004KT 8000 FEW013 FEW020CB 29/25 Q1008 NOSIG
18:00
V
29 °C 8 km - 180° 180° 3 kt METAR DNMM 301700Z 18003KT 8000 SCT013 FEW020CB 29/25 Q1008 NOSIG
17:00
V
28 °C 8 km - Var Var 2 kt METAR DNMM 301600Z VRB02KT 8000 SCT012 FEW020CB 28/25 Q1007 NOSIG
16:00
M
26 °C 8 km 1.000 ft Var Var 2 kt METAR DNMM 301500Z VRB02KT 8000 BKN010 FEW020CB 26/24 Q1007 NOSIG
15:00
M
26 °C 8 km 1.000 ft 210° 210° 3 kt METAR DNMM 301400Z 21003KT 8000 BKN010 FEW020CB 26/24 Q1007 TEMPO 5000 -TSRA
14:00
M
27 °C 6 km 1.100 ft Var Var 2 kt METAR DNMM 301300Z VRB02KT 6000 2500SE -RA BKN011 FEW020CB 27/24 Q1007 TEMPO 5000 -TSRA
13:00
M
32 °C 8 km 1.400 ft 110° 110° 3 kt METAR DNMM 301200Z 11003KT 8000 BKN014 FEW020CB 32/26 Q1008 TEMPO TEMPO TS
12:00
M
30 °C 8 km 1.300 ft 190° 190° 3 kt METAR DNMM 301100Z 19003KT 8000 BKN013 30/25 Q1009 TEMPO BKN013 FEW020CB
11:00
M
29 °C 7 km 1.300 ft 300° 300° 4 kt METAR DNMM 301000Z 30004KT 7000 BKN013 29/25 Q1010 TEMPO BKN013 FEW020CB
10:00
I
28 °C 3,5 km - 290° 290° 4 kt METAR DNMM 300900Z 29004KT 3500 HZ SCT012 28/26 Q1010 TEMPO 5000 HZ
09:00
I
26 °C 1,5 km - 320° 320° 4 kt METAR DNMM 300800Z 32004KT 1500 HZ SCT010 26/25 Q1010 TEMPO 3000 HZ
08:00
I
25 °C 1,5 km - Var Var 2 kt METAR DNMM 300700Z VRB02KT 1500 BR SCT009 25/24 Q1009 TEMPO 3000 BR BKN012 FEW020CB
07:00
I
24 °C 1,5 km - Var Var 2 kt METAR DNMM 300600Z VRB02KT 1500 BR FEW008 24/24 Q1008 TEMPO 3000 BR BKN012 FEW020CB
06:00
M
24 °C 5 km - Var Var 2 kt METAR DNMM 300500Z VRB02KT 5000 FEW008 24/23 Q1008 TEMPO 3000 BR
05:00
M
24 °C 6 km - Var Var 2 kt METAR DNMM 300400Z VRB02KT 6000 FEW008 24/23 Q1008 TEMPO 5000 HZ
04:00
M
25 °C 7 km - 310° 310° 3 kt METAR DNMM 300300Z 31003KT 7000 FEW009 25/24 Q1008 NOSIG
03:00
M
25 °C 7 km - Var 000° 0 kt METAR DNMM 300200Z 00000KT 7000 FEW009 25/24 Q1008 NOSIG
02:00
M
25 °C 7 km - Var 000° 0 kt METAR DNMM 300100Z 00000KT 7000 FEW009 25/24 Q1008 NOSIG
01:00
M
25 °C 7 km - Var 000° 0 kt METAR DNMM 300000Z 00000KT 7000 FEW009 25/24 Q1009 NOSIG
00:00
M
26 °C 7 km - Var Var 2 kt METAR DNMM 292300Z VRB02KT 7000 FEW009 26/24 Q1009 NOSIG

29 novembre 2022

Tempo Codice Tempo metereologico Temp. Vista Base nuvolosa Vento METAR/SPECI
23:00
M
26 °C 7 km - Var Var 2 kt METAR DNMM 292200Z VRB02KT 7000 FEW010 26/24 Q1010 NOSIG
22:00
M
26 °C 7 km - Var Var 2 kt METAR DNMM 292100Z VRB02KT 7000 FEW010 26/24 Q1010 NOSIG
21:00
M
26 °C 6 km - 210° 210° 3 kt METAR DNMM 292000Z 21003KT 6000 FEW010 26/25 Q1009 NOSIG
20:00
M
26 °C 6 km - 190° 190° 3 kt METAR DNMM 291900Z 19003KT 6000 FEW010 26/25 Q1008 NOSIG
19:00
M
27 °C 6 km - 160° 160° 4 kt METAR DNMM 291800Z 16004KT 6000 FEW011 FEW020CB 27/25 Q1008 NOSIG
18:00
M
28 °C 6 km - 230° 230° 5 kt METAR DNMM 291700Z 23005KT 6000 SCT012 FEW020CB 28/25 Q1007 TEMPO 5000 HZ
17:00
M
30 °C 6 km - 160° 160° 4 kt METAR DNMM 291600Z 16004KT 6000 SCT013 FEW020CB 30/25 Q1007 TEMPO 5000 HZ
14:00
V
29 °C 8 km - Var Var 2 kt METAR DNMM 291300Z VRB02KT 8000 SCT013 FEW020CB 29/25 Q1008 NOSIG
13:00
M
28 °C 7 km - Var Var 2 kt METAR DNMM 291200Z VRB02KT 7000 SCT012 FEW020CB 28/25 Q1009 NOSIG
12:00
I
27 °C 3 km - Var Var 2 kt METAR DNMM 291100Z VRB02KT 3000 HZ SCT011 FEW020CB 27/25 Q1010 TEMPO 5000 HZ
11:00
I
27 °C 1,5 km - 320° 320° 3 kt METAR DNMM 291000Z 32003KT 1500 HZ SCT010 FEW020CB 27/25 Q1010 TEMPO 3000 HZ

Noi e le terze parti seguiamo il tuo comportamento su internet con i cookie. Se continui, riteniamo che tu sia d'accordo con la nostra Politica sui cookie.